sensor_id;sensor_type;location;lat;lon;timestamp;pressure;altitude;pressure_sealevel;temperature;humidity
54546;BME280;40444;45.184;9.850;2023-12-07T16:53:33;101293.88;;;3.63;100.00
54546;BME280;40444;45.184;9.850;2023-12-07T16:56:07;101289.09;;;3.69;100.00
54546;BME280;40444;45.184;9.850;2023-12-07T16:58:36;101297.22;;;3.84;100.00
54546;BME280;40444;45.184;9.850;2023-12-07T17:01:05;101302.00;;;3.94;100.00
54546;BME280;40444;45.184;9.850;2023-12-07T17:03:33;101303.22;;;4.04;100.00
54546;BME280;40444;45.184;9.850;2023-12-07T17:06:05;101310.84;;;4.11;100.00
54546;BME280;40444;45.184;9.850;2023-12-07T17:08:34;101306.69;;;4.07;100.00
54546;BME280;40444;45.184;9.850;2023-12-07T17:11:05;101312.84;;;4.07;100.00
54546;BME280;40444;45.184;9.850;2023-12-07T17:13:34;101325.44;;;4.19;100.00
54546;BME280;40444;45.184;9.850;2023-12-07T17:16:03;101325.28;;;4.22;100.00
54546;BME280;40444;45.184;9.850;2023-12-07T17:18:32;101322.88;;;4.18;100.00
54546;BME280;40444;45.184;9.850;2023-12-07T17:21:02;101327.94;;;4.22;100.00
54546;BME280;40444;45.184;9.850;2023-12-07T17:23:32;101344.66;;;4.24;100.00
54546;BME280;40444;45.184;9.850;2023-12-07T17:26:01;101346.53;;;4.22;100.00
54546;BME280;40444;45.184;9.850;2023-12-07T17:28:29;101358.44;;;4.14;100.00
54546;BME280;40444;45.184;9.850;2023-12-07T17:30:58;101372.03;;;4.08;100.00
54546;BME280;40444;45.184;9.850;2023-12-07T17:33:26;101364.59;;;3.97;100.00
54546;BME280;40444;45.184;9.850;2023-12-07T17:35:55;101367.41;;;3.94;100.00
54546;BME280;40444;45.184;9.850;2023-12-07T17:38:23;101366.00;;;3.87;100.00
54546;BME280;40444;45.184;9.850;2023-12-07T17:40:52;101372.25;;;3.86;100.00
54546;BME280;40444;45.184;9.850;2023-12-07T17:43:20;101375.88;;;3.83;100.00
54546;BME280;40444;45.184;9.850;2023-12-07T17:45:49;101376.69;;;3.85;100.00
54546;BME280;40444;45.184;9.850;2023-12-07T17:48:21;101368.56;;;3.88;100.00
54546;BME280;40444;45.184;9.850;2023-12-07T17:50:50;101364.91;;;3.91;100.00
54546;BME280;40444;45.184;9.850;2023-12-07T17:53:19;101356.19;;;3.89;100.00
54546;BME280;40444;45.184;9.850;2023-12-07T17:55:47;101357.09;;;3.88;100.00
54546;BME280;40444;45.184;9.850;2023-12-07T17:58:16;101359.97;;;3.83;100.00
54546;BME280;40444;45.184;9.850;2023-12-07T18:00:44;101362.00;;;3.78;100.00
54546;BME280;40444;45.184;9.850;2023-12-07T18:03:13;101369.56;;;3.68;100.00
54546;BME280;40444;45.184;9.850;2023-12-07T18:05:42;101378.44;;;3.67;100.00
54546;BME280;40444;45.184;9.850;2023-12-07T18:08:10;101379.66;;;3.60;100.00
54546;BME280;40444;45.184;9.850;2023-12-07T18:10:38;101381.25;;;3.45;100.00
54546;BME280;40444;45.184;9.850;2023-12-07T18:13:07;101378.09;;;3.37;100.00
54546;BME280;40444;45.184;9.850;2023-12-07T18:15:37;101390.50;;;3.37;100.00
54546;BME280;40444;45.184;9.850;2023-12-07T18:18:06;101381.75;;;3.35;100.00
54546;BME280;40444;45.184;9.850;2023-12-07T18:20:35;101378.41;;;3.31;100.00
54546;BME280;40444;45.184;9.850;2023-12-07T18:23:04;101385.56;;;3.29;100.00
54546;BME280;40444;45.184;9.850;2023-12-07T18:25:32;101383.97;;;3.25;100.00
54546;BME280;40444;45.184;9.850;2023-12-07T18:28:00;101381.50;;;3.22;100.00
54546;BME280;40444;45.184;9.850;2023-12-07T18:30:29;101393.06;;;3.19;100.00
54546;BME280;40444;45.184;9.850;2023-12-07T18:32:58;101379.91;;;3.18;100.00
54546;BME280;40444;45.184;9.850;2023-12-07T18:35:26;101382.47;;;3.19;100.00
54546;BME280;40444;45.184;9.850;2023-12-07T18:37:57;101386.84;;;3.20;100.00
54546;BME280;40444;45.184;9.850;2023-12-07T18:40:25;101387.00;;;3.17;100.00
54546;BME280;40444;45.184;9.850;2023-12-07T18:42:55;101382.81;;;3.12;100.00
54546;BME280;40444;45.184;9.850;2023-12-07T18:45:26;101384.81;;;3.07;100.00
